sensor_id;sensor_type;location;lat;lon;timestamp;temperature;humidity
7032;DHT22;3557;48.880;8.328;2022-10-16T00:03:12;18.00;99.90
7032;DHT22;3557;48.880;8.328;2022-10-16T00:05:42;17.90;99.90
7032;DHT22;3557;48.880;8.328;2022-10-16T00:08:11;17.80;99.90
7032;DHT22;3557;48.880;8.328;2022-10-16T00:10:39;17.70;99.90
7032;DHT22;3557;48.880;8.328;2022-10-16T00:15:35;17.60;99.90
7032;DHT22;3557;48.880;8.328;2022-10-16T00:18:05;17.50;99.90
7032;DHT22;3557;48.880;8.328;2022-10-16T00:20:34;17.40;99.90
7032;DHT22;3557;48.880;8.328;2022-10-16T00:23:03;17.30;99.90
7032;DHT22;3557;48.880;8.328;2022-10-16T00:27:59;17.10;99.90
7032;DHT22;3557;48.880;8.328;2022-10-16T00:30:26;17.10;99.90
7032;DHT22;3557;48.880;8.328;2022-10-16T00:32:54;17.00;99.90
7032;DHT22;3557;48.880;8.328;2022-10-16T00:35:21;17.00;99.90
7032;DHT22;3557;48.880;8.328;2022-10-16T00:37:48;16.90;99.90
7032;DHT22;3557;48.880;8.328;2022-10-16T00:40:17;17.00;99.90
7032;DHT22;3557;48.880;8.328;2022-10-16T00:47:42;16.80;99.90
7032;DHT22;3557;48.880;8.328;2022-10-16T00:50:18;16.70;99.90
7032;DHT22;3557;48.880;8.328;2022-10-16T00:52:50;16.60;99.90
7032;DHT22;3557;48.880;8.328;2022-10-16T00:55:20;16.60;99.90
7032;DHT22;3557;48.880;8.328;2022-10-16T00:57:48;16.60;99.90
7032;DHT22;3557;48.880;8.328;2022-10-16T01:00:19;16.50;99.90
7032;DHT22;3557;48.880;8.328;2022-10-16T01:02:52;16.40;99.90
7032;DHT22;3557;48.880;8.328;2022-10-16T01:05:21;16.30;99.90
7032;DHT22;3557;48.880;8.328;2022-10-16T01:07:56;16.10;99.90
7032;DHT22;3557;48.880;8.328;2022-10-16T01:10:31;16.10;99.90
7032;DHT22;3557;48.880;8.328;2022-10-16T01:13:06;16.00;99.90
7032;DHT22;3557;48.880;8.328;2022-10-16T01:15:36;15.90;99.90
7032;DHT22;3557;48.880;8.328;2022-10-16T01:18:10;15.90;99.90
7032;DHT22;3557;48.880;8.328;2022-10-16T01:20:44;15.80;99.90
7032;DHT22;3557;48.880;8.328;2022-10-16T01:23:31;15.80;99.90
7032;DHT22;3557;48.880;8.328;2022-10-16T01:26:18;15.60;99.90
7032;DHT22;3557;48.880;8.328;2022-10-16T01:28:55;15.60;99.90
7032;DHT22;3557;48.880;8.328;2022-10-16T01:31:28;15.60;99.90
7032;DHT22;3557;48.880;8.328;2022-10-16T01:34:02;15.60;99.90
7032;DHT22;3557;48.880;8.328;2022-10-16T01:36:36;15.60;99.90
7032;DHT22;3557;48.880;8.328;2022-10-16T01:39:06;15.60;99.90
7032;DHT22;3557;48.880;8.328;2022-10-16T01:41:39;15.60;99.90
7032;DHT22;3557;48.880;8.328;2022-10-16T01:44:11;15.50;99.90
7032;DHT22;3557;48.880;8.328;2022-10-16T01:46:43;15.50;99.90
7032;DHT22;3557;48.880;8.328;2022-10-16T01:49:13;15.50;99.90
7032;DHT22;3557;48.880;8.328;2022-10-16T01:51:41;15.50;99.90
7032;DHT22;3557;48.880;8.328;2022-10-16T01:54:12;15.50;99.90
7032;DHT22;3557;48.880;8.328;2022-10-16T01:56:41;15.40;99.90
7032;DHT22;3557;48.880;8.328;2022-10-16T01:59:13;15.40;99.90
7032;DHT22;3557;48.880;8.328;2022-10-16T02:01:45;15.40;99.90
7032;DHT22;3557;48.880;8.328;2022-10-16T02:04:18;15.40;99.90
7032;DHT22;3557;48.880;8.328;2022-10-16T02:06:48;15.30;99.90
7032;DHT22;3557;48.880;8.328;2022-10-16T02:09:15;15.20;99.90
7032;DHT22;3557;48.880;8.328;2022-10-16T02:11:42;15.20;99.90
7032;DHT22;3557;48.880;8.328;2022-10-16T02:14:11;15.20;99.90
7032;DHT22;3557;48.880;8.328;2022-10-16T02:16:40;15.20;99.90
7032;DHT22;3557;48.880;8.328;2022-10-16T02:19:11;15.10;99.90
7032;DHT22;3557;48.880;8.328;2022-10-16T02:21:43;15.10;99.90
7032;DHT22;3557;48.880;8.328;2022-10-16T02:24:19;15.10;99.90
7032;DHT22;3557;48.880;8.328;2022-10-16T02:26:56;15.00;99.90
7032;DHT22;3557;48.880;8.328;2022-10-16T02:29:27;15.10;99.90
7032;DHT22;3557;48.880;8.328;2022-10-16T02:31:57;15.10;99.90
7032;DHT22;3557;48.880;8.328;2022-10-16T02:34:27;15.10;99.90
7032;DHT22;3557;48.880;8.328;2022-10-16T02:36:57;15.20;99.90
7032;DHT22;3557;48.880;8.328;2022-10-16T02:39:26;15.10;99.90
7032;DHT22;3557;48.880;8.328;2022-10-16T02:41:54;15.10;99.90
7032;DHT22;3557;48.880;8.328;2022-10-16T02:46:50;15.10;99.90
7032;DHT22;3557;48.880;8.328;2022-10-16T02:49:17;15.00;99.90
7032;DHT22;3557;48.880;8.328;2022-10-16T02:51:44;15.00;99.90
7032;DHT22;3557;48.880;8.328;2022-10-16T02:59:05;14.90;99.90
7032;DHT22;3557;48.880;8.328;2022-10-16T03:01:32;15.10;99.90
7032;DHT22;3557;48.880;8.328;2022-10-16T03:04:01;14.90;99.90
7032;DHT22;3557;48.880;8.328;2022-10-16T03:11:23;14.80;99.90
7032;DHT22;3557;48.880;8.328;2022-10-16T03:13:50;14.70;99.90
7032;DHT22;3557;48.880;8.328;2022-10-16T03:18:47;14.80;99.90
7032;DHT22;3557;48.880;8.328;2022-10-16T03:21:16;14.90;99.90
7032;DHT22;3557;48.880;8.328;2022-10-16T03:26:11;14.90;99.90
7032;DHT22;3557;48.880;8.328;2022-10-16T03:31:05;14.90;99.90
7032;DHT22;3557;48.880;8.328;2022-10-16T03:35:59;14.80;99.90
7032;DHT22;3557;48.880;8.328;2022-10-16T03:38:28;14.90;99.90
7032;DHT22;3557;48.880;8.328;2022-10-16T03:40:55;14.90;99.90
7032;DHT22;3557;48.880;8.328;2022-10-16T03:43:22;14.90;99.90
7032;DHT22;3557;48.880;8.328;2022-10-16T03:45:50;14.90;99.90
7032;DHT22;3557;48.880;8.328;2022-10-16T03:50:44;14.80;99.90
7032;DHT22;3557;48.880;8.328;2022-10-16T03:55:42;14.70;99.90
7032;DHT22;3557;48.880;8.328;2022-10-16T04:00:40;14.70;99.90
7032;DHT22;3557;48.880;8.328;2022-10-16T04:05:35;14.70;99.90
7032;DHT22;3557;48.880;8.328;2022-10-16T04:08:03;14.70;99.90
7032;DHT22;3557;48.880;8.328;2022-10-16T04:10:30;14.60;99.90
7032;DHT22;3557;48.880;8.328;2022-10-16T04:12:58;14.60;99.90
7032;DHT22;3557;48.880;8.328;2022-10-16T04:15:26;14.60;99.90
7032;DHT22;3557;48.880;8.328;2022-10-16T04:17:53;14.60;99.90
7032;DHT22;3557;48.880;8.328;2022-10-16T04:25:15;14.60;99.90
7032;DHT22;3557;48.880;8.328;2022-10-16T04:27:42;14.60;99.90
7032;DHT22;3557;48.880;8.328;2022-10-16T04:30:10;14.70;99.90
7032;DHT22;3557;48.880;8.328;2022-10-16T04:35:05;14.60;99.90
7032;DHT22;3557;48.880;8.328;2022-10-16T04:37:33;14.60;99.90
7032;DHT22;3557;48.880;8.328;2022-10-16T04:42:28;14.70;99.90
7032;DHT22;3557;48.880;8.328;2022-10-16T04:44:55;14.80;99.90
7032;DHT22;3557;48.880;8.328;2022-10-16T04:47:23;14.80;99.90
7032;DHT22;3557;48.880;8.328;2022-10-16T04:49:50;14.80;99.90
7032;DHT22;3557;48.880;8.328;2022-10-16T04:52:17;14.80;99.90
7032;DHT22;3557;48.880;8.328;2022-10-16T04:54:44;14.80;99.90
7032;DHT22;3557;48.880;8.328;2022-10-16T04:59:39;14.80;99.90
7032;DHT22;3557;48.880;8.328;2022-10-16T05:02:06;14.90;99.90
7032;DHT22;3557;48.880;8.328;2022-10-16T05:04:34;14.90;99.90
7032;DHT22;3557;48.880;8.328;2022-10-16T05:07:01;14.90;99.90
7032;DHT22;3557;48.880;8.328;2022-10-16T05:09:28;14.90;99.90
7032;DHT22;3557;48.880;8.328;2022-10-16T05:14:23;14.90;99.90
7032;DHT22;3557;48.880;8.328;2022-10-16T05:16:50;14.90;99.90
7032;DHT22;3557;48.880;8.328;2022-10-16T05:21:46;14.90;99.90
7032;DHT22;3557;48.880;8.328;2022-10-16T05:24:13;15.00;99.90
7032;DHT22;3557;48.880;8.328;2022-10-16T05:26:40;15.00;99.90
7032;DHT22;3557;48.880;8.328;2022-10-16T05:29:07;15.00;99.90
7032;DHT22;3557;48.880;8.328;2022-10-16T05:31:34;15.10;99.90
7032;DHT22;3557;48.880;8.328;2022-10-16T05:34:02;15.10;99.90
7032;DHT22;3557;48.880;8.328;2022-10-16T05:36:29;15.10;99.90
7032;DHT22;3557;48.880;8.328;2022-10-16T05:38:57;15.10;99.90
7032;DHT22;3557;48.880;8.328;2022-10-16T05:46:20;15.20;99.90
7032;DHT22;3557;48.880;8.328;2022-10-16T05:48:47;15.20;99.90
7032;DHT22;3557;48.880;8.328;2022-10-16T05:51:14;15.20;99.90
7032;DHT22;3557;48.880;8.328;2022-10-16T05:53:41;15.20;99.90
7032;DHT22;3557;48.880;8.328;2022-10-16T05:56:11;15.20;99.90
7032;DHT22;3557;48.880;8.328;2022-10-16T05:58:39;15.20;99.90
7032;DHT22;3557;48.880;8.328;2022-10-16T06:01:09;15.10;99.90
7032;DHT22;3557;48.880;8.328;2022-10-16T06:03:37;15.10;99.90
7032;DHT22;3557;48.880;8.328;2022-10-16T06:06:09;15.10;99.90
7032;DHT22;3557;48.880;8.328;2022-10-16T06:08:37;15.10;99.90
7032;DHT22;3557;48.880;8.328;2022-10-16T06:11:06;15.10;99.90
7032;DHT22;3557;48.880;8.328;2022-10-16T06:13:35;15.10;99.90
7032;DHT22;3557;48.880;8.328;2022-10-16T06:16:03;15.00;99.90
7032;DHT22;3557;48.880;8.328;2022-10-16T06:18:31;15.00;99.90
7032;DHT22;3557;48.880;8.328;2022-10-16T06:23:28;15.00;99.90
7032;DHT22;3557;48.880;8.328;2022-10-16T06:26:04;15.10;99.90
7032;DHT22;3557;48.880;8.328;2022-10-16T06:28:32;15.00;99.90
7032;DHT22;3557;48.880;8.328;2022-10-16T06:31:01;15.10;99.90
7032;DHT22;3557;48.880;8.328;2022-10-16T06:33:28;15.20;99.90
7032;DHT22;3557;48.880;8.328;2022-10-16T06:36:00;15.20;99.90
7032;DHT22;3557;48.880;8.328;2022-10-16T06:38:28;15.20;99.90
7032;DHT22;3557;48.880;8.328;2022-10-16T06:40:56;15.20;99.90
7032;DHT22;3557;48.880;8.328;2022-10-16T06:43:23;15.20;99.90
7032;DHT22;3557;48.880;8.328;2022-10-16T06:45:51;15.20;99.90
7032;DHT22;3557;48.880;8.328;2022-10-16T06:48:20;15.20;99.90
7032;DHT22;3557;48.880;8.328;2022-10-16T06:50:58;15.20;99.90
7032;DHT22;3557;48.880;8.328;2022-10-16T06:53:26;15.20;99.90
7032;DHT22;3557;48.880;8.328;2022-10-16T06:55:55;15.20;99.90
7032;DHT22;3557;48.880;8.328;2022-10-16T07:00:55;15.20;99.90
7032;DHT22;3557;48.880;8.328;2022-10-16T07:03:24;15.20;99.90
7032;DHT22;3557;48.880;8.328;2022-10-16T07:05:51;15.30;99.90
7032;DHT22;3557;48.880;8.328;2022-10-16T07:08:18;15.40;99.90
7032;DHT22;3557;48.880;8.328;2022-10-16T07:13:13;15.60;99.90
7032;DHT22;3557;48.880;8.328;2022-10-16T07:18:07;15.70;99.90
7032;DHT22;3557;48.880;8.328;2022-10-16T07:20:35;15.80;99.90
7032;DHT22;3557;48.880;8.328;2022-10-16T07:35:19;16.10;99.90
7032;DHT22;3557;48.880;8.328;2022-10-16T07:37:48;16.20;99.90
7032;DHT22;3557;48.880;8.328;2022-10-16T07:45:09;16.50;99.90
7032;DHT22;3557;48.880;8.328;2022-10-16T07:47:36;16.60;99.90
7032;DHT22;3557;48.880;8.328;2022-10-16T07:50:04;16.70;99.90
7032;DHT22;3557;48.880;8.328;2022-10-16T07:52:31;16.80;99.90
7032;DHT22;3557;48.880;8.328;2022-10-16T07:54:59;16.90;99.90
7032;DHT22;3557;48.880;8.328;2022-10-16T07:59:54;17.10;99.90
7032;DHT22;3557;48.880;8.328;2022-10-16T08:02:21;17.10;99.90
7032;DHT22;3557;48.880;8.328;2022-10-16T08:07:15;17.40;99.90
7032;DHT22;3557;48.880;8.328;2022-10-16T08:09:42;17.50;99.90
7032;DHT22;3557;48.880;8.328;2022-10-16T08:12:11;17.50;99.90
7032;DHT22;3557;48.880;8.328;2022-10-16T08:14:38;17.60;99.90
7032;DHT22;3557;48.880;8.328;2022-10-16T08:17:05;17.70;99.90
7032;DHT22;3557;48.880;8.328;2022-10-16T08:19:32;17.60;99.90
7032;DHT22;3557;48.880;8.328;2022-10-16T08:24:27;17.70;99.90
7032;DHT22;3557;48.880;8.328;2022-10-16T08:29:25;17.90;99.90
7032;DHT22;3557;48.880;8.328;2022-10-16T08:34:19;17.90;99.90
7032;DHT22;3557;48.880;8.328;2022-10-16T08:36:46;17.90;99.90
7032;DHT22;3557;48.880;8.328;2022-10-16T08:39:16;18.00;99.90
7032;DHT22;3557;48.880;8.328;2022-10-16T08:42:11;18.00;99.90
7032;DHT22;3557;48.880;8.328;2022-10-16T08:45:21;18.30;99.90
7032;DHT22;3557;48.880;8.328;2022-10-16T08:48:00;18.70;99.90
7032;DHT22;3557;48.880;8.328;2022-10-16T08:50:38;19.10;99.90
7032;DHT22;3557;48.880;8.328;2022-10-16T08:53:07;19.30;99.90
7032;DHT22;3557;48.880;8.328;2022-10-16T08:55:41;19.40;99.90
7032;DHT22;3557;48.880;8.328;2022-10-16T08:58:12;19.50;99.90
7032;DHT22;3557;48.880;8.328;2022-10-16T09:00:43;19.50;99.90
7032;DHT22;3557;48.880;8.328;2022-10-16T09:03:17;19.60;99.90
7032;DHT22;3557;48.880;8.328;2022-10-16T09:06:10;19.50;99.90
7032;DHT22;3557;48.880;8.328;2022-10-16T09:08:56;19.50;99.90
7032;DHT22;3557;48.880;8.328;2022-10-16T09:11:39;19.50;99.90
7032;DHT22;3557;48.880;8.328;2022-10-16T09:14:28;19.50;99.90
7032;DHT22;3557;48.880;8.328;2022-10-16T09:17:26;19.50;99.90
7032;DHT22;3557;48.880;8.328;2022-10-16T09:20:14;19.70;99.90
7032;DHT22;3557;48.880;8.328;2022-10-16T09:22:46;19.80;99.90
7032;DHT22;3557;48.880;8.328;2022-10-16T09:25:15;19.80;99.90
7032;DHT22;3557;48.880;8.328;2022-10-16T09:27:47;19.90;99.90
7032;DHT22;3557;48.880;8.328;2022-10-16T09:30:17;19.80;99.90
7032;DHT22;3557;48.880;8.328;2022-10-16T09:32:48;19.80;99.90
7032;DHT22;3557;48.880;8.328;2022-10-16T09:35:19;19.80;99.90
7032;DHT22;3557;48.880;8.328;2022-10-16T09:37:50;19.80;99.90
7032;DHT22;3557;48.880;8.328;2022-10-16T09:40:26;19.90;99.90
7032;DHT22;3557;48.880;8.328;2022-10-16T09:43:01;19.90;99.90
7032;DHT22;3557;48.880;8.328;2022-10-16T09:45:29;19.80;99.90
7032;DHT22;3557;48.880;8.328;2022-10-16T09:48:00;19.90;99.90
7032;DHT22;3557;48.880;8.328;2022-10-16T09:50:28;19.90;99.90
7032;DHT22;3557;48.880;8.328;2022-10-16T09:53:06;20.00;99.90
7032;DHT22;3557;48.880;8.328;2022-10-16T09:55:47;20.10;99.90
7032;DHT22;3557;48.880;8.328;2022-10-16T10:00:49;20.20;99.90
7032;DHT22;3557;48.880;8.328;2022-10-16T10:03:34;20.40;99.90
7032;DHT22;3557;48.880;8.328;2022-10-16T10:06:14;20.40;99.90
7032;DHT22;3557;48.880;8.328;2022-10-16T10:08:57;20.80;99.90
7032;DHT22;3557;48.880;8.328;2022-10-16T10:11:37;21.40;99.90
7032;DHT22;3557;48.880;8.328;2022-10-16T10:14:06;22.00;99.90
7032;DHT22;3557;48.880;8.328;2022-10-16T10:19:14;22.50;99.90
7032;DHT22;3557;48.880;8.328;2022-10-16T10:21:42;22.40;99.90
7032;DHT22;3557;48.880;8.328;2022-10-16T10:24:11;22.50;99.90
7032;DHT22;3557;48.880;8.328;2022-10-16T10:26:44;22.50;99.90
7032;DHT22;3557;48.880;8.328;2022-10-16T10:29:23;22.80;99.90
7032;DHT22;3557;48.880;8.328;2022-10-16T10:32:06;22.40;99.90
7032;DHT22;3557;48.880;8.328;2022-10-16T10:34:51;22.30;99.90
7032;DHT22;3557;48.880;8.328;2022-10-16T10:37:51;22.40;99.90
7032;DHT22;3557;48.880;8.328;2022-10-16T10:40:39;22.20;99.90
7032;DHT22;3557;48.880;8.328;2022-10-16T10:43:19;22.00;99.90
7032;DHT22;3557;48.880;8.328;2022-10-16T10:45:54;22.00;99.90
7032;DHT22;3557;48.880;8.328;2022-10-16T10:49:05;22.00;99.90
7032;DHT22;3557;48.880;8.328;2022-10-16T10:51:47;22.00;99.90
7032;DHT22;3557;48.880;8.328;2022-10-16T10:54:24;22.10;99.90
7032;DHT22;3557;48.880;8.328;2022-10-16T10:56:58;22.10;99.90
7032;DHT22;3557;48.880;8.328;2022-10-16T10:59:58;22.00;99.90
7032;DHT22;3557;48.880;8.328;2022-10-16T11:02:36;21.90;99.90
7032;DHT22;3557;48.880;8.328;2022-10-16T11:05:21;21.90;99.90
7032;DHT22;3557;48.880;8.328;2022-10-16T11:07:58;21.70;99.90
7032;DHT22;3557;48.880;8.328;2022-10-16T11:10:30;21.60;99.90
7032;DHT22;3557;48.880;8.328;2022-10-16T11:13:08;21.80;99.90
7032;DHT22;3557;48.880;8.328;2022-10-16T11:15:43;21.80;99.90
7032;DHT22;3557;48.880;8.328;2022-10-16T11:18:16;22.20;99.90
7032;DHT22;3557;48.880;8.328;2022-10-16T11:20:50;22.40;99.90
7032;DHT22;3557;48.880;8.328;2022-10-16T11:23:25;22.80;99.90
7032;DHT22;3557;48.880;8.328;2022-10-16T11:25:56;23.30;99.90
7032;DHT22;3557;48.880;8.328;2022-10-16T11:28:29;23.40;99.90
7032;DHT22;3557;48.880;8.328;2022-10-16T11:31:03;23.40;99.90
7032;DHT22;3557;48.880;8.328;2022-10-16T11:33:39;23.50;99.90
7032;DHT22;3557;48.880;8.328;2022-10-16T11:36:12;23.70;99.90
7032;DHT22;3557;48.880;8.328;2022-10-16T11:38:49;23.80;99.90
7032;DHT22;3557;48.880;8.328;2022-10-16T11:41:26;23.70;99.90
7032;DHT22;3557;48.880;8.328;2022-10-16T11:44:09;23.70;99.90
7032;DHT22;3557;48.880;8.328;2022-10-16T11:46:48;23.60;99.90
7032;DHT22;3557;48.880;8.328;2022-10-16T11:49:21;23.50;99.90
7032;DHT22;3557;48.880;8.328;2022-10-16T11:51:56;23.50;99.90
7032;DHT22;3557;48.880;8.328;2022-10-16T11:54:34;23.30;99.90
7032;DHT22;3557;48.880;8.328;2022-10-16T11:57:09;23.20;99.90
7032;DHT22;3557;48.880;8.328;2022-10-16T11:59:44;23.10;99.90
7032;DHT22;3557;48.880;8.328;2022-10-16T12:02:30;22.90;99.90
7032;DHT22;3557;48.880;8.328;2022-10-16T12:05:10;23.00;99.90
7032;DHT22;3557;48.880;8.328;2022-10-16T12:07:48;23.00;99.90
7032;DHT22;3557;48.880;8.328;2022-10-16T12:10:25;23.20;99.90
7032;DHT22;3557;48.880;8.328;2022-10-16T12:15:25;22.80;99.90
7032;DHT22;3557;48.880;8.328;2022-10-16T12:17:53;22.80;99.90
7032;DHT22;3557;48.880;8.328;2022-10-16T12:20:23;22.70;99.90
7032;DHT22;3557;48.880;8.328;2022-10-16T12:22:54;22.60;99.90
7032;DHT22;3557;48.880;8.328;2022-10-16T12:25:26;22.50;99.90
7032;DHT22;3557;48.880;8.328;2022-10-16T12:28:02;22.50;99.90
7032;DHT22;3557;48.880;8.328;2022-10-16T12:30:32;22.40;99.90
7032;DHT22;3557;48.880;8.328;2022-10-16T12:33:03;22.40;99.90
7032;DHT22;3557;48.880;8.328;2022-10-16T12:35:33;22.40;99.90
7032;DHT22;3557;48.880;8.328;2022-10-16T12:38:15;22.40;99.90
7032;DHT22;3557;48.880;8.328;2022-10-16T12:40:45;22.50;99.90
7032;DHT22;3557;48.880;8.328;2022-10-16T12:43:38;23.80;99.90
7032;DHT22;3557;48.880;8.328;2022-10-16T12:46:35;22.70;99.90
7032;DHT22;3557;48.880;8.328;2022-10-16T12:49:15;22.80;99.90
7032;DHT22;3557;48.880;8.328;2022-10-16T12:54:18;22.80;99.90
7032;DHT22;3557;48.880;8.328;2022-10-16T12:56:55;22.90;99.90
7032;DHT22;3557;48.880;8.328;2022-10-16T12:59:35;23.40;99.90
7032;DHT22;3557;48.880;8.328;2022-10-16T13:02:34;22.80;99.90
7032;DHT22;3557;48.880;8.328;2022-10-16T13:05:20;22.50;99.90
7032;DHT22;3557;48.880;8.328;2022-10-16T13:08:12;22.40;99.90
7032;DHT22;3557;48.880;8.328;2022-10-16T13:10:58;22.30;99.90
7032;DHT22;3557;48.880;8.328;2022-10-16T13:13:43;22.40;99.90
7032;DHT22;3557;48.880;8.328;2022-10-16T13:16:33;22.30;99.90
7032;DHT22;3557;48.880;8.328;2022-10-16T13:19:14;22.20;99.90
7032;DHT22;3557;48.880;8.328;2022-10-16T13:21:53;22.30;99.90
7032;DHT22;3557;48.880;8.328;2022-10-16T13:24:34;22.20;99.90
7032;DHT22;3557;48.880;8.328;2022-10-16T13:27:14;22.20;99.90
7032;DHT22;3557;48.880;8.328;2022-10-16T13:29:52;22.10;99.90
7032;DHT22;3557;48.880;8.328;2022-10-16T13:32:22;22.10;99.90
7032;DHT22;3557;48.880;8.328;2022-10-16T13:34:49;22.10;99.90
7032;DHT22;3557;48.880;8.328;2022-10-16T13:37:18;22.10;99.90
7032;DHT22;3557;48.880;8.328;2022-10-16T13:42:21;22.10;99.90
7032;DHT22;3557;48.880;8.328;2022-10-16T13:44:52;22.00;99.90
7032;DHT22;3557;48.880;8.328;2022-10-16T13:47:27;21.90;99.90
7032;DHT22;3557;48.880;8.328;2022-10-16T13:50:02;21.90;99.90
7032;DHT22;3557;48.880;8.328;2022-10-16T13:52:32;21.80;99.90
7032;DHT22;3557;48.880;8.328;2022-10-16T13:57:30;21.50;99.90
7032;DHT22;3557;48.880;8.328;2022-10-16T13:59:59;21.40;99.90
7032;DHT22;3557;48.880;8.328;2022-10-16T14:02:30;21.50;99.90
7032;DHT22;3557;48.880;8.328;2022-10-16T14:05:02;21.70;99.90
7032;DHT22;3557;48.880;8.328;2022-10-16T14:10:05;22.00;99.90
7032;DHT22;3557;48.880;8.328;2022-10-16T14:12:34;22.30;99.90
7032;DHT22;3557;48.880;8.328;2022-10-16T14:15:15;22.50;99.90
7032;DHT22;3557;48.880;8.328;2022-10-16T14:17:50;22.60;99.90
7032;DHT22;3557;48.880;8.328;2022-10-16T14:20:18;22.80;99.90
7032;DHT22;3557;48.880;8.328;2022-10-16T14:22:46;22.80;99.90
7032;DHT22;3557;48.880;8.328;2022-10-16T14:25:26;22.90;99.90
7032;DHT22;3557;48.880;8.328;2022-10-16T14:27:58;22.80;99.90
7032;DHT22;3557;48.880;8.328;2022-10-16T14:30:30;22.60;99.90
7032;DHT22;3557;48.880;8.328;2022-10-16T14:33:00;22.50;99.90
7032;DHT22;3557;48.880;8.328;2022-10-16T14:35:33;22.40;99.90
7032;DHT22;3557;48.880;8.328;2022-10-16T14:38:05;22.50;99.90
7032;DHT22;3557;48.880;8.328;2022-10-16T14:40:35;22.80;99.90
7032;DHT22;3557;48.880;8.328;2022-10-16T14:43:04;22.90;99.90
7032;DHT22;3557;48.880;8.328;2022-10-16T14:45:34;23.10;99.90
7032;DHT22;3557;48.880;8.328;2022-10-16T14:48:06;23.20;99.90
7032;DHT22;3557;48.880;8.328;2022-10-16T14:50:43;23.10;99.90
7032;DHT22;3557;48.880;8.328;2022-10-16T14:53:11;23.00;99.90
7032;DHT22;3557;48.880;8.328;2022-10-16T14:55:39;22.80;99.90
7032;DHT22;3557;48.880;8.328;2022-10-16T14:58:10;22.70;99.90
7032;DHT22;3557;48.880;8.328;2022-10-16T15:00:42;22.70;99.90
7032;DHT22;3557;48.880;8.328;2022-10-16T15:03:09;22.60;99.90
7032;DHT22;3557;48.880;8.328;2022-10-16T15:10:35;23.00;99.90
7032;DHT22;3557;48.880;8.328;2022-10-16T15:15:35;23.40;99.90
7032;DHT22;3557;48.880;8.328;2022-10-16T15:18:05;23.60;99.90
7032;DHT22;3557;48.880;8.328;2022-10-16T15:20:34;23.60;99.90
7032;DHT22;3557;48.880;8.328;2022-10-16T15:23:03;23.60;99.90
7032;DHT22;3557;48.880;8.328;2022-10-16T15:25:35;23.80;99.90
7032;DHT22;3557;48.880;8.328;2022-10-16T15:30:34;23.70;99.90
7032;DHT22;3557;48.880;8.328;2022-10-16T15:33:02;23.40;99.90
7032;DHT22;3557;48.880;8.328;2022-10-16T15:50:19;22.40;99.90
7032;DHT22;3557;48.880;8.328;2022-10-16T15:55:14;22.20;99.90
7032;DHT22;3557;48.880;8.328;2022-10-16T16:00:11;22.10;99.90
7032;DHT22;3557;48.880;8.328;2022-10-16T16:05:09;21.90;99.90
7032;DHT22;3557;48.880;8.328;2022-10-16T16:07:38;21.80;99.90
7032;DHT22;3557;48.880;8.328;2022-10-16T16:10:08;21.80;99.90
7032;DHT22;3557;48.880;8.328;2022-10-16T16:12:37;21.70;99.90
7032;DHT22;3557;48.880;8.328;2022-10-16T16:15:06;23.00;99.90
7032;DHT22;3557;48.880;8.328;2022-10-16T16:17:34;21.40;99.90
7032;DHT22;3557;48.880;8.328;2022-10-16T16:22:30;20.90;99.90
7032;DHT22;3557;48.880;8.328;2022-10-16T16:24:59;20.70;99.90
7032;DHT22;3557;48.880;8.328;2022-10-16T16:34:51;19.70;99.90
7032;DHT22;3557;48.880;8.328;2022-10-16T16:42:15;19.20;99.90
7032;DHT22;3557;48.880;8.328;2022-10-16T16:47:10;19.00;99.90
7032;DHT22;3557;48.880;8.328;2022-10-16T16:54:33;18.60;99.90
7032;DHT22;3557;48.880;8.328;2022-10-16T16:59:30;18.40;99.90
7032;DHT22;3557;48.880;8.328;2022-10-16T17:06:54;18.20;99.90
7032;DHT22;3557;48.880;8.328;2022-10-16T17:16:45;17.80;99.90
7032;DHT22;3557;48.880;8.328;2022-10-16T17:19:16;17.80;99.90
7032;DHT22;3557;48.880;8.328;2022-10-16T17:21:44;17.60;99.90
7032;DHT22;3557;48.880;8.328;2022-10-16T17:24:11;17.50;99.90
7032;DHT22;3557;48.880;8.328;2022-10-16T17:29:11;17.30;99.90
7032;DHT22;3557;48.880;8.328;2022-10-16T17:34:09;17.00;99.90
7032;DHT22;3557;48.880;8.328;2022-10-16T17:36:38;16.90;99.90
7032;DHT22;3557;48.880;8.328;2022-10-16T17:39:10;16.80;99.90
7032;DHT22;3557;48.880;8.328;2022-10-16T17:41:38;16.80;99.90
7032;DHT22;3557;48.880;8.328;2022-10-16T17:44:06;16.80;99.90
7032;DHT22;3557;48.880;8.328;2022-10-16T17:46:33;16.80;99.90
7032;DHT22;3557;48.880;8.328;2022-10-16T17:49:01;16.70;99.90
7032;DHT22;3557;48.880;8.328;2022-10-16T17:51:30;16.50;99.90
7032;DHT22;3557;48.880;8.328;2022-10-16T17:53:59;16.60;99.90
7032;DHT22;3557;48.880;8.328;2022-10-16T17:56:27;16.60;99.90
7032;DHT22;3557;48.880;8.328;2022-10-16T17:58:56;16.50;99.90
7032;DHT22;3557;48.880;8.328;2022-10-16T18:01:27;16.50;99.90
7032;DHT22;3557;48.880;8.328;2022-10-16T18:03:57;16.60;99.90
7032;DHT22;3557;48.880;8.328;2022-10-16T18:08:56;16.50;99.90
7032;DHT22;3557;48.880;8.328;2022-10-16T18:11:24;16.40;99.90
7032;DHT22;3557;48.880;8.328;2022-10-16T18:13:53;16.30;99.90
7032;DHT22;3557;48.880;8.328;2022-10-16T18:16:21;16.20;99.90
7032;DHT22;3557;48.880;8.328;2022-10-16T18:18:49;16.10;99.90
7032;DHT22;3557;48.880;8.328;2022-10-16T18:21:18;16.00;99.90
7032;DHT22;3557;48.880;8.328;2022-10-16T18:23:46;15.90;99.90
7032;DHT22;3557;48.880;8.328;2022-10-16T18:26:16;15.90;99.90
7032;DHT22;3557;48.880;8.328;2022-10-16T18:28:43;15.60;99.90
7032;DHT22;3557;48.880;8.328;2022-10-16T18:31:12;15.70;99.90
7032;DHT22;3557;48.880;8.328;2022-10-16T18:33:40;15.70;99.90
7032;DHT22;3557;48.880;8.328;2022-10-16T18:36:13;15.70;99.90
7032;DHT22;3557;48.880;8.328;2022-10-16T18:38:40;15.70;99.90
7032;DHT22;3557;48.880;8.328;2022-10-16T18:41:08;15.70;99.90
7032;DHT22;3557;48.880;8.328;2022-10-16T18:43:37;15.70;99.90
7032;DHT22;3557;48.880;8.328;2022-10-16T18:46:06;15.60;99.90
7032;DHT22;3557;48.880;8.328;2022-10-16T18:51:06;15.40;99.90
7032;DHT22;3557;48.880;8.328;2022-10-16T18:53:37;15.30;99.90
7032;DHT22;3557;48.880;8.328;2022-10-16T18:56:05;15.30;99.90
7032;DHT22;3557;48.880;8.328;2022-10-16T18:58:33;16.40;99.90
7032;DHT22;3557;48.880;8.328;2022-10-16T19:01:06;15.30;99.90
7032;DHT22;3557;48.880;8.328;2022-10-16T19:03:34;15.20;99.90
7032;DHT22;3557;48.880;8.328;2022-10-16T19:06:02;15.10;99.90
7032;DHT22;3557;48.880;8.328;2022-10-16T19:08:31;15.10;99.90
7032;DHT22;3557;48.880;8.328;2022-10-16T19:11:02;15.10;99.90
7032;DHT22;3557;48.880;8.328;2022-10-16T19:13:29;15.00;99.90
7032;DHT22;3557;48.880;8.328;2022-10-16T19:15:57;15.00;99.90
7032;DHT22;3557;48.880;8.328;2022-10-16T19:18:26;15.00;99.90
7032;DHT22;3557;48.880;8.328;2022-10-16T19:20:53;14.90;99.90
7032;DHT22;3557;48.880;8.328;2022-10-16T19:23:21;14.90;99.90
7032;DHT22;3557;48.880;8.328;2022-10-16T19:28:15;14.80;99.90
7032;DHT22;3557;48.880;8.328;2022-10-16T19:35:39;14.70;99.90
7032;DHT22;3557;48.880;8.328;2022-10-16T19:43:01;14.70;99.90
7032;DHT22;3557;48.880;8.328;2022-10-16T19:45:28;14.70;99.90
7032;DHT22;3557;48.880;8.328;2022-10-16T19:52:51;14.70;99.90
7032;DHT22;3557;48.880;8.328;2022-10-16T19:55:18;14.70;99.90
7032;DHT22;3557;48.880;8.328;2022-10-16T19:57:46;14.60;99.90
7032;DHT22;3557;48.880;8.328;2022-10-16T20:05:09;14.50;99.90
7032;DHT22;3557;48.880;8.328;2022-10-16T20:10:06;14.40;99.90
7032;DHT22;3557;48.880;8.328;2022-10-16T20:12:33;14.30;99.90
7032;DHT22;3557;48.880;8.328;2022-10-16T20:22:24;14.20;99.90
7032;DHT22;3557;48.880;8.328;2022-10-16T20:27:21;14.10;99.90